Flight Track Log - Related Links

Times and Time Zones

All times are in EDT time to prevent confusion due to time zone crossing. See the SWA3087 flight status page for this flight to view local times or setup timezone preferences in your user account.

Time Position Orientation Groundspeed Altitude Reporting Facility
EDT Latitude Longitude Course Direction KTS MPH feet Rate Location/Type
Sun 04:05:32 PM 36.0761 -115.1683 278° West 182 209 3,000  Level Los Angeles Center
Sun 04:07:05 PM 36.0886 -115.2833 278° West 243 280 6,100 2,019 Climbing Los Angeles Center
Sun 04:07:16 PM 36.0983 -115.2911 327° Northwest 267 307 6,500 3,097 Climbing Los Angeles Center
Sun 04:08:07 PM 36.1547 -115.2850 North 245 282 9,300 3,224 Climbing Los Angeles Center
Sun 04:08:23 PM 36.1678 -115.2631 54° Northeast 258 297 10,100 2,129 Climbing Los Angeles Center
Sun 04:09:09 PM 36.1894 -115.1956 68° East 274 315 11,500 1,833 Climbing Los Angeles Center
Sun 04:10:11 PM 36.1956 -115.0775 86° East 350 403 13,400 2,419 Climbing Los Angeles Center
Sun 04:11:13 PM 36.1989 -114.9419 88° East 364 419 16,500 2,710 Climbing Los Angeles Center
Sun 04:12:15 PM 36.1992 -114.8114 90° East 381 438 19,000 2,032 Climbing Los Angeles Center
Sun 04:13:17 PM 36.1997 -114.6669 90° East 417 480 20,700 1,968 Climbing Los Angeles Center
Sun 04:14:20 PM 36.1978 -114.5167 91° East 434 499 23,100 1,824 Climbing Los Angeles Center
Sun 04:15:22 PM 36.1956 -114.3592 91° East 451 519 24,500 1,452 Climbing Los Angeles Center
Sun 04:16:24 PM 36.1972 -114.1919 89° East 478 550 26,100 1,694 Climbing Los Angeles Center
Sun 04:17:26 PM 36.2247 -113.9856 81° East 504 580 28,000 1,548 Climbing Los Angeles Center
Sun 04:18:28 PM 36.2450 -113.8089 82° East 513 590 29,300 1,452 Climbing Los Angeles Center
Sun 04:19:30 PM 36.2656 -113.6311 82° East 518 596 31,000 1,645 Climbing Los Angeles Center
Sun 04:20:32 PM 36.2864 -113.4525 82° East 521 600 32,700 1,548 Climbing Los Angeles Center
Sun 04:21:34 PM 36.3064 -113.2756 82° East 521 600 34,200 1,392 Climbing Los Angeles Center
Sun 04:22:37 PM 36.3631 -113.0867 70° East 522 601 35,600 1,200 Climbing Los Angeles Center
Sun 04:23:39 PM 36.4247 -112.9219 65° Northeast 523 602 36,700 677 Climbing Los Angeles Center
Sun 04:24:41 PM 36.4839 -112.7597 66° East 522 601 37,000 145 Climbing Los Angeles Center
Sun 04:25:43 PM 36.5439 -112.5994 65° Northeast 519 597 37,000  Level Los Angeles Center
Sun 04:26:45 PM 36.6139 -112.4067 66° East 515 593 37,000  Level Los Angeles Center
Sun 04:27:47 PM 36.6719 -112.2461 66° East 515 593 37,000  Level Los Angeles Center
Sun 04:28:49 PM 36.7303 -112.0861 65° Northeast 514 592 37,000  Level Los Angeles Center
Sun 04:29:51 PM 36.7883 -111.9239 66° East 513 590 37,000  Level Los Angeles Center
Sun 04:30:54 PM 36.8467 -111.7619 66° East 513 590 37,000  Level Los Angeles Center
Sun 04:31:29 PM 36.8828 -111.6633 65° Northeast 515 593 37,000  Level Denver Center
Sun 04:32:31 PM 36.9511 -111.4672 66° East 515 593 37,000  Level Denver Center
Sun 04:33:33 PM 37.0092 -111.3044 66° East 515 593 37,000  Level Denver Center
Sun 04:34:35 PM 37.0597 -111.1383 69° East 515 593 37,000  Level Denver Center
Sun 04:35:37 PM 37.0978 -110.9658 74° East 516 594 37,000  Level Denver Center
Sun 04:36:39 PM 37.1369 -110.7933 74° East 516 594 37,000  Level Denver Center
Sun 04:37:40 PM 37.1747 -110.6203 75° East 516 594 37,000  Level Denver Center
Sun 04:38:42 PM 37.2197 -110.4150 75° East 514 592 37,000  Level Denver Center
Sun 04:39:44 PM 37.2581 -110.2419 74° East 514 592 37,000  Level Denver Center
Sun 04:40:46 PM 37.2944 -110.0700 75° East 514 592 37,000  Level Denver Center
Sun 04:41:48 PM 37.3306 -109.9028 75° East 515 593 37,000  Level Denver Center
Sun 04:42:50 PM 37.3708 -109.7086 75° East 515 593 37,000  Level Denver Center
Sun 04:43:51 PM 37.4069 -109.5403 75° East 516 594 37,000  Level Denver Center
Sun 04:44:53 PM 37.4472 -109.3439 75° East 516 594 37,000  Level Denver Center
Sun 04:45:55 PM 37.4831 -109.1747 75° East 520 598 37,000  Level Denver Center
Sun 04:46:57 PM 37.5233 -108.9769 76° East 520 598 37,000  Level Denver Center
Sun 04:47:59 PM 37.5575 -108.8086 76° East 520 598 37,000  Level Denver Center
Sun 04:49:01 PM 37.5964 -108.6081 76° East 521 600 37,000  Level Denver Center
Sun 04:50:03 PM 37.6306 -108.4422 75° East 516 594 37,000  Level Denver Center
Sun 04:51:05 PM 37.6633 -108.2747 76° East 516 594 37,000  Level Denver Center
Sun 04:52:07 PM 37.7019 -108.0783 76° East 515 593 37,000  Level Denver Center
Sun 04:53:09 PM 37.7344 -107.9114 76° East 515 593 37,000  Level Denver Center
Sun 04:54:11 PM 37.7722 -107.7175 76° East 511 588 37,000  Level Denver Center
Sun 04:55:13 PM 37.8039 -107.5494 77° East 511 588 37,000  Level Denver Center
Sun 04:56:15 PM 37.8414 -107.3539 76° East 511 588 37,000  Level Denver Center
Sun 04:57:17 PM 37.8744 -107.1778 77° East 511 588 37,000  Level Denver Center
Sun 04:58:19 PM 37.9053 -107.0072 77° East 516 594 37,000  Level Denver Center
Sun 04:59:21 PM 37.9425 -106.8106 76° East 515 593 37,000  Level Denver Center
Sun 05:00:23 PM 37.9722 -106.6417 77° East 516 594 37,000 290 Level Denver Center
Sun 05:01:25 PM 38.0100 -106.4417 76° East 524 603 37,600 677 Climbing Denver Center
Sun 05:02:27 PM 38.0467 -106.2572 76° East 536 617 38,400 677 Climbing Denver Center
Sun 05:03:29 PM 38.0725 -106.0772 80° East 528 608 39,000 290 Climbing Denver Center
Sun 05:04:31 PM 38.1053 -105.8969 77° East 524 603 39,000  Level Denver Center
Sun 05:05:33 PM 38.1394 -105.7158 76° East 528 608 39,000  Level Denver Center
Sun 05:06:35 PM 38.1736 -105.5042 78° East 520 598 39,000  Level Denver Center
Sun 05:07:37 PM 38.2039 -105.3236 78° East 520 598 39,000  Level Denver Center
Sun 05:08:39 PM 38.2347 -105.1425 78° East 522 601 39,000  Level Denver Center
Sun 05:09:41 PM 38.2653 -104.9617 78° East 522 601 39,000  Level Denver Center
Sun 05:10:43 PM 38.2950 -104.7819 78° East 522 601 39,000  Level Denver Center
Sun 05:11:45 PM 38.3253 -104.5992 78° East 522 601 39,000  Level Denver Center
Sun 05:12:47 PM 38.3556 -104.4125 78° East 525 604 39,000  Level Denver Center
Sun 05:13:49 PM 38.3917 -104.1942 78° East 527 606 39,000  Level Denver Center
Sun 05:14:50 PM 38.4186 -104.0114 79° East 527 606 39,000  Level Denver Center
Sun 05:15:52 PM 38.4483 -103.8297 78° East 526 605 39,000  Level Denver Center
Sun 05:16:54 PM 38.4767 -103.6453 79° East 525 604 39,000  Level Denver Center
Sun 05:17:56 PM 38.5056 -103.4508 79° East 522 601 39,000  Level Denver Center
Sun 05:18:58 PM 38.5328 -103.2778 79° East 521 600 39,000  Level Denver Center
Sun 05:20:00 PM 38.5681 -103.0758 77° East 520 598 39,000  Level Denver Center
Sun 05:21:02 PM 38.6058 -102.8989 75° East 520 598 39,000  Level Denver Center
Sun 05:22:04 PM 38.6439 -102.7106 75° East 515 593 39,000  Level Denver Center
Sun 05:23:06 PM 38.6806 -102.5422 74° East 514 592 39,000  Level Denver Center
Sun 05:24:08 PM 38.7172 -102.3758 74° East 511 588 39,000  Level Denver Center
Sun 05:25:10 PM 38.7664 -102.1875 71° East 500 575 39,000  Level Denver Center
Sun 05:26:12 PM 38.8142 -102.0319 68° East 496 571 39,000  Level Denver Center
Sun 05:27:14 PM 38.8769 -101.8525 66° East 494 568 39,000  Level Denver Center
Sun 05:28:15 PM 38.9308 -101.6981 66° East 494 568 39,000  Level Denver Center
Sun 05:29:17 PM 38.9944 -101.5164 66° East 496 571 39,000  Level Denver Center
Sun 05:30:19 PM 39.0531 -101.3536 65° Northeast 499 574 39,000  Level Denver Center
Sun 05:31:21 PM 39.1003 -101.1947 69° East 500 575 39,000  Level Denver Center
Sun 05:32:23 PM 39.1336 -100.9989 78° East 502 578 39,000  Level Denver Center
Sun 05:33:25 PM 39.1625 -100.8303 77° East 502 578 39,000  Level Denver Center
Sun 05:34:27 PM 39.1781 -100.6306 84° East 505 581 39,000  Level Denver Center
Sun 05:35:29 PM 39.1669 -100.4597 95° East 503 579 39,000  Level Denver Center
Sun 05:36:31 PM 39.1425 -100.2586 99° East 506 582 39,000  Level Denver Center
Sun 05:37:33 PM 39.1125 -100.0911 103° East 507 583 39,000  Level Denver Center
Sun 05:38:35 PM 39.0694 -99.9014 106° East 502 578 39,000  Level Denver Center
Sun 05:39:37 PM 39.0339 -99.7425 106° East 492 566 39,000  Level Denver Center
Sun 05:40:39 PM 38.9919 -99.5550 106° East 490 564 39,000  Level Denver Center
Sun 05:41:44 PM 38.9508 -99.3961 108° East 492 566 39,000  Level Kansas City Center
Sun 05:42:46 PM 38.9072 -99.2275 108° East 494 568 39,000  Level Kansas City Center
Sun 05:43:46 PM 38.8650 -99.0597 108° East 497 572 39,000  Level Kansas City Center
Sun 05:44:51 PM 38.8239 -98.8556 104° East 496 571 39,000  Level Kansas City Center
Sun 05:45:51 PM 38.7953 -98.6831 102° East 493 567 39,000  Level Kansas City Center
Sun 05:46:55 PM 38.7689 -98.5103 101° East 494 568 39,000  Level Kansas City Center
Sun 05:47:56 PM 38.7511 -98.3353 97° East 495 570 39,000  Level Kansas City Center
Sun 05:48:57 PM 38.7336 -98.1539 97° East 496 571 39,000  Level Kansas City Center
Sun 05:50:00 PM 38.7344 -97.9803 90° East 500 575 39,000  Level Kansas City Center
Sun 05:51:02 PM 38.7506 -97.7717 84° East 498 573 39,000  Level Kansas City Center
Sun 05:52:05 PM 38.7814 -97.6014 77° East 494 568 39,000  Level Kansas City Center
Sun 05:53:05 PM 38.8047 -97.4214 81° East 497 572 39,000  Level Kansas City Center
Sun 05:54:09 PM 38.8281 -97.2469 80° East 497 572 39,000  Level Kansas City Center
Sun 05:55:09 PM 38.8536 -97.0608 80° East 497 572 39,000  Level Kansas City Center
Sun 05:56:13 PM 38.8761 -96.8964 80° East 498 573 39,000  Level Kansas City Center
Sun 05:57:14 PM 38.9033 -96.7242 78° East 493 567 39,000  Level Kansas City Center
Sun 05:58:15 PM 38.9328 -96.5153 80° East 493 567 39,000  Level Kansas City Center
Sun 05:59:19 PM 38.9500 -96.3436 83° East 498 573 39,000  Level Kansas City Center
Sun 06:00:20 PM 38.9728 -96.1714 80° East 496 571 39,000  Level Kansas City Center
Sun 06:01:22 PM 38.9947 -95.9986 81° East 491 565 39,000  Level Kansas City Center
Sun 06:02:23 PM 39.0167 -95.8294 80° East 483 556 39,000  Level Kansas City Center
Sun 06:03:28 PM 39.0406 -95.6272 81° East 481 554 39,000  Level Kansas City Center
Sun 06:04:28 PM 39.0642 -95.4408 81° East 491 565 39,000  Level Kansas City Center
Sun 06:05:32 PM 39.0844 -95.2758 81° East 487 560 39,000  Level Kansas City Center
Sun 06:06:33 PM 39.1056 -95.0933 81° East 486 559 39,000  Level Kansas City Center
Sun 06:07:34 PM 39.1264 -94.9178 81° East 485 558 39,000  Level Kansas City Center
Sun 06:08:37 PM 39.1456 -94.7461 82° East 486 559 39,000  Level Kansas City Center
Sun 06:09:38 PM 39.1667 -94.5731 81° East 491 565 39,000  Level Kansas City Center
Sun 06:10:42 PM 39.1869 -94.4036 81° East 486 559 39,000  Level Kansas City Center
Sun 06:11:43 PM 39.2064 -94.2322 82° East 485 558 39,000  Level Kansas City Center
Sun 06:12:45 PM 39.2292 -94.0275 82° East 485 558 39,000  Level Kansas City Center
Sun 06:13:48 PM 39.2472 -93.8569 82° East 484 557 39,000  Level Kansas City Center
Sun 06:14:49 PM 39.2669 -93.6853 82° East 485 558 39,000  Level Kansas City Center
Sun 06:15:50 PM 39.2856 -93.5114 82° East 486 559 39,000  Level Kansas City Center
Sun 06:16:54 PM 39.3017 -93.3361 83° East 491 565 39,000  Level Kansas City Center
Sun 06:17:55 PM 39.3206 -93.1683 82° East 489 563 39,000  Level Kansas City Center
Sun 06:18:58 PM 39.3467 -92.9650 81° East 486 559 39,000  Level Kansas City Center
Sun 06:19:59 PM 39.3756 -92.7958 77° East 486 559 39,000  Level Kansas City Center
Sun 06:21:00 PM 39.4022 -92.6278 78° East 486 559 39,000  Level Kansas City Center
Sun 06:22:04 PM 39.4289 -92.4625 78° East 484 557 39,000  Level Kansas City Center
Sun 06:23:05 PM 39.4597 -92.2675 78° East 475 547 39,000  Level Kansas City Center
Sun 06:24:07 PM 39.4853 -92.1064 78° East 470 541 39,000  Level Kansas City Center
Sun 06:25:10 PM 39.5106 -91.9447 78° East 469 540 39,000  Level Kansas City Center
Sun 06:26:11 PM 39.5358 -91.7844 78° East 465 535 39,000  Level Kansas City Center
Sun 06:27:15 PM 39.5653 -91.5939 79° East 461 531 39,000  Level Kansas City Center
Sun 06:28:16 PM 39.5894 -91.4328 79° East 460 529 39,000  Level Kansas City Center
Sun 06:29:19 PM 39.6139 -91.2692 79° East 461 531 39,000  Level Kansas City Center
Sun 06:30:20 PM 39.6386 -91.1050 79° East 461 531 39,000  Level Kansas City Center
Sun 06:31:21 PM 39.6619 -90.9442 79° East 459 528 39,000  Level Kansas City Center
Sun 06:32:25 PM 39.6858 -90.7836 79° East 458 527 39,000  Level Kansas City Center
Sun 06:33:27 PM 39.7144 -90.5864 79° East 458 527 39,000  Level Kansas City Center
Sun 06:34:27 PM 39.7372 -90.4239 80° East 458 527 39,000 -581 Level Kansas City Center
Sun 06:35:31 PM 39.7572 -90.2803 80° East 458 527 37,800 -1,776 Descending Kansas City Center
Sun 06:36:32 PM 39.7836 -90.0850 80° East 458 527 35,300 -1,344 Descending Kansas City Center
Sun 06:37:36 PM 39.8067 -89.9194 80° East 461 531 35,000 -145 Descending Kansas City Center
Sun 06:38:36 PM 39.8294 -89.7539 80° East 464 534 35,000 -198 Level Kansas City Center
Sun 06:39:37 PM 39.8400 -89.5861 85° East 464 534 34,600 -619 Descending Kansas City Center
Sun 06:40:42 PM 39.8408 -89.4194 90° East 464 534 33,700 -768 Descending Kansas City Center
Sun 06:41:42 PM 39.8419 -89.2164 90° East 465 535 33,000 -339 Descending Kansas City Center
Sun 06:42:46 PM 39.8417 -89.0489 90° East 466 536 33,000  Level Kansas City Center
Sun 06:43:47 PM 39.8422 -88.8814 90° East 466 536 33,000 -992 Level Kansas City Center
Sun 06:44:47 PM 39.8422 -88.7128 90° East 466 536 31,000 -2,129 Descending Kansas City Center
Sun 06:45:51 PM 39.8422 -88.5467 90° East 465 535 28,600 -2,256 Descending Kansas City Center
Sun 06:46:52 PM 39.8417 -88.3833 90° East 460 529 26,300 -2,226 Descending Kansas City Center
Sun 06:47:55 PM 39.8414 -88.1908 90° East 448 516 24,000 -1,095 Descending Kansas City Center
Sun 06:48:58 PM 39.8406 -88.0364 90° East 436 502 24,000  Level Kansas City Center
Sun 06:50:00 PM 39.8389 -87.8817 91° East 430 495 24,000 -732 Level Kansas City Center
Sun 06:51:01 PM 39.8378 -87.7261 90° East 427 491 22,500 -1,805 Descending Kansas City Center
Sun 06:52:03 PM 39.8364 -87.5750 91° East 421 484 20,300 -2,096 Descending Kansas City Center
Sun 06:53:27 PM 39.8325 -87.3703 91° East 400 460 17,400 -2,096 Descending Indianapolis Center
Sun 06:54:29 PM 39.8306 -87.2314 91° East 393 452 15,200 -2,129 Descending Indianapolis Center
Sun 06:55:31 PM 39.8589 -87.1014 74° East 383 441 13,000 -1,561 Descending Indianapolis Center
Sun 06:56:32 PM 39.8942 -86.9792 69° East 369 425 12,000 -1,268 Descending Indianapolis Center
Sun 06:57:34 PM 39.9292 -86.8578 69° East 362 417 10,400 -968 Descending Indianapolis Center
Sun 06:58:36 PM 39.9400 -86.7050 85° East 360 414 10,000 -290 Descending Indianapolis Center
Sun 06:59:38 PM 39.9281 -86.5894 98° East 337 388 9,800 -871 Descending Indianapolis Center
Sun 07:00:40 PM 39.9083 -86.4831 104° East 316 364 8,200 -1,645 Descending Indianapolis Center
Sun 07:01:42 PM 39.8903 -86.3800 103° East 302 348 6,400 -1,597 Descending Indianapolis Center
Sun 07:02:44 PM 39.8719 -86.2814 104° East 288 331 4,900 -1,073 Descending Indianapolis Center
Sun 07:03:45 PM 39.8528 -86.1986 107° East 257 296 4,200 -878 Descending Indianapolis Center
Sun 07:04:47 PM 39.8078 -86.1989 180° South 198 228 3,100 -1,016 Descending Indianapolis Center
Sun 07:05:49 PM 39.7781 -86.2294 218° Southwest 160 184 2,100 -823 Descending Indianapolis Center
Sun 07:06:51 PM 39.7531 -86.2611 224° Southwest 137 158 1,400 -629 Descending Indianapolis Center
Sun 07:07:53 PM 39.7264 -86.2956 225° Southwest 130 150 800 -581 Descending Indianapolis Center
Sun 07:09:00 PM 39.7167 -86.2833 223° Southwest  Level FlightAware Approximate

Login

Don't have an account? Register now (free) for customized features, flight alerts, and more!